Time;durP1;ratioP1;P1;durP2;ratioP2;P2;SDS_P1;SDS_P2;PMS_P1;PMS_P2;Temp;Humidity;BMP_temperature;BMP_pressure;BME280_temperature;BME280_humidity;BME280_pressure;Samples;Min_cycle;Max_cycle;Signal;HPM_P1;HPM_P2
2021/03/02 00:02:00;;;;;;;13.52;6.78;;;;;;;24.12;36.19;101587.59;4490515;31;33444;-65
2021/03/02 00:04:28;;;;;;;10.55;6.47;;;;;;;24.12;36.16;101586.75;4499736;31;34140;-64
2021/03/02 00:06:55;;;;;;;13.38;6.80;;;;;;;24.11;36.25;101596.00;4486289;31;34741;-65
2021/03/02 00:09:22;;;;;;;10.50;6.53;;;;;;;24.10;36.32;101586.94;4483469;32;33882;-64
2021/03/02 00:11:50;;;;;;;12.45;7.20;;;;;;;24.09;36.35;101593.44;4483549;32;34688;-66
2021/03/02 00:14:17;;;;;;;14.00;6.60;;;;;;;24.08;36.32;101588.16;4483192;32;33479;-64
2021/03/02 00:16:50;;;;;;;11.12;6.25;;;;;;;24.07;36.29;101590.06;4483552;32;33311;-66
2021/03/02 00:19:18;;;;;;;11.35;6.35;;;;;;;24.06;36.27;101588.38;4496204;31;33908;-60
2021/03/02 00:21:48;;;;;;;11.93;7.00;;;;;;;24.07;36.31;101590.06;4498909;31;33699;-66
2021/03/02 00:24:22;;;;;;;14.65;7.10;;;;;;;24.05;36.36;101589.37;4499938;31;33294;-60
2021/03/02 00:26:53;;;;;;;12.15;6.32;;;;;;;24.05;36.48;101583.94;4473986;31;33787;-51
2021/03/02 00:29:20;;;;;;;13.27;6.47;;;;;;;24.04;36.42;101582.25;4482777;32;34530;-59
2021/03/02 00:31:48;;;;;;;10.27;6.28;;;;;;;24.04;36.57;101581.41;4483855;32;33750;-59
2021/03/02 00:34:15;;;;;;;14.73;7.12;;;;;;;24.03;36.78;101575.09;4486756;31;33412;-60
2021/03/02 00:36:43;;;;;;;18.30;5.95;;;;;;;24.01;36.84;101566.25;4500925;31;33661;-60
2021/03/02 00:39:10;;;;;;;10.75;6.28;;;;;;;24.01;36.75;101566.25;4500694;31;34045;-52
2021/03/02 00:41:37;;;;;;;8.55;5.72;;;;;;;24.02;36.81;101567.12;4500785;31;33927;-55
2021/03/02 00:44:05;;;;;;;10.25;6.43;;;;;;;24.01;36.72;101566.25;4500933;31;33260;-60
2021/03/02 00:46:32;;;;;;;12.05;6.55;;;;;;;24.00;36.78;101570.00;4488967;31;33909;-56
2021/03/02 00:48:59;;;;;;;13.90;6.57;;;;;;;23.99;36.76;101572.94;4483062;32;33852;-62
2021/03/02 00:51:26;;;;;;;15.50;7.00;;;;;;;23.98;36.76;101568.53;4483811;32;34414;-60
2021/03/02 00:53:54;;;;;;;10.77;6.45;;;;;;;23.97;36.91;101564.06;4483783;32;33495;-56
2021/03/02 00:56:21;;;;;;;11.27;6.20;;;;;;;23.97;36.88;101573.13;4469502;32;33823;-61
2021/03/02 00:58:48;;;;;;;10.73;6.68;;;;;;;23.96;36.83;101571.41;4469223;32;33601;-57
2021/03/02 01:01:15;;;;;;;10.38;6.60;;;;;;;23.95;36.82;101561.56;4477567;32;33905;-65
2021/03/02 01:03:43;;;;;;;11.02;6.35;;;;;;;23.94;36.83;101559.88;4496745;31;33332;-66
2021/03/02 01:06:13;;;;;;;10.30;6.10;;;;;;;23.93;36.87;101569.94;4485559;31;33763;-64
2021/03/02 01:08:41;;;;;;;12.43;6.30;;;;;;;23.95;36.83;101566.16;4485176;32;34632;-58
2021/03/02 01:11:08;;;;;;;9.40;6.68;;;;;;;23.94;36.91;101562.59;4485120;32;33718;-65
2021/03/02 01:13:36;;;;;;;9.95;6.03;;;;;;;23.92;36.85;101556.47;4484914;32;33468;-66
2021/03/02 01:16:03;;;;;;;9.25;5.30;;;;;;;23.91;36.86;101549.31;4483618;32;33929;-52
2021/03/02 01:18:30;;;;;;;12.48;6.28;;;;;;;23.91;36.89;101552.88;4482723;32;33980;-60
2021/03/02 01:20:58;;;;;;;9.27;5.90;;;;;;;23.90;36.80;101551.22;4469441;31;32843;-50
2021/03/02 01:23:25;;;;;;;13.88;6.15;;;;;;;23.90;36.81;101553.94;4487662;31;33412;-57
2021/03/02 01:25:52;;;;;;;12.77;6.18;;;;;;;23.89;36.98;101545.94;4498247;31;34790;-61
2021/03/02 01:28:19;;;;;;;14.25;6.15;;;;;;;23.89;36.98;101543.22;4495090;31;33820;-53
2021/03/02 01:30:46;;;;;;;13.38;6.03;;;;;;;23.88;36.96;101544.28;4489657;31;33919;-53
2021/03/02 01:33:14;;;;;;;11.18;5.85;;;;;;;23.88;36.97;101555.16;4496629;31;33427;-65
2021/03/02 01:35:42;;;;;;;12.55;5.68;;;;;;;23.87;36.94;101556.19;4488780;31;34688;-66
2021/03/02 01:38:09;;;;;;;9.75;5.85;;;;;;;23.87;36.94;101554.28;4499788;31;34640;-67
2021/03/02 01:40:36;;;;;;;14.02;6.82;;;;;;;23.85;36.43;101537.28;4487826;31;33485;-65
2021/03/02 01:43:03;;;;;;;14.57;6.10;;;;;;;23.85;35.73;101540.03;4483874;32;33087;-64
2021/03/02 01:45:30;;;;;;;15.90;6.15;;;;;;;23.84;35.79;101541.06;4483855;32;33564;-64
2021/03/02 01:47:57;;;;;;;16.25;7.35;;;;;;;23.83;35.89;101536.66;4483693;32;35000;-65
2021/03/02 01:50:25;;;;;;;12.30;6.97;;;;;;;23.81;36.02;101535.13;4483800;32;34488;-64
2021/03/02 01:52:52;;;;;;;21.80;7.35;;;;;;;23.81;36.05;101533.25;4495058;31;33104;-65
2021/03/02 01:55:19;;;;;;;17.25;7.30;;;;;;;23.80;36.06;101537.00;4497367;31;33376;-59
2021/03/02 01:57:47;;;;;;;15.40;6.65;;;;;;;23.80;36.10;101547.06;4497643;31;34024;-62
2021/03/02 02:00:30;;;;;;;13.62;6.45;;;;;;;23.79;36.10;101540.78;4495984;31;33523;-64
2021/03/02 02:03:15;;;;;;;10.75;6.10;;;;;;;23.79;36.17;101531.75;4497441;31;33355;-60
2021/03/02 02:05:47;;;;;;;18.98;6.87;;;;;;;23.80;36.26;101533.44;4497498;31;33812;-63
2021/03/02 02:08:32;;;;;;;10.75;5.95;;;;;;;23.77;36.37;101531.94;4484730;31;33920;-63
2021/03/02 02:11:03;;;;;;;13.70;6.72;;;;;;;23.76;36.42;101524.78;4485412;31;34599;-61
2021/03/02 02:13:32;;;;;;;14.87;6.75;;;;;;;23.75;36.44;101525.84;4493719;31;33070;-59
2021/03/02 02:16:01;;;;;;;11.18;6.32;;;;;;;23.74;36.47;101518.69;4482167;32;33819;-55
2021/03/02 02:18:33;;;;;;;13.18;6.53;;;;;;;23.73;36.52;101514.25;4465458;32;114510;-59
2021/03/02 02:21:07;;;;;;;17.30;6.35;;;;;;;23.74;36.54;101518.69;4483078;32;34021;-59
2021/03/02 02:23:50;;;;;;;12.20;5.90;;;;;;;23.74;36.63;101524.16;4484523;32;33647;-62
2021/03/02 02:26:45;;;;;;;12.88;6.35;;;;;;;23.74;36.58;101523.31;4497630;31;34850;-56
2021/03/02 02:29:15;;;;;;;14.93;6.80;;;;;;;23.73;36.63;101521.59;4500112;31;33944;-59
2021/03/02 02:31:42;;;;;;;12.68;6.12;;;;;;;23.71;36.70;101531.84;4500128;31;33835;-65
2021/03/02 02:34:11;;;;;;;12.65;5.65;;;;;;;23.70;36.67;101531.00;4485933;31;34515;-66
2021/03/02 02:36:38;;;;;;;12.80;5.97;;;;;;;23.69;36.69;101537.50;4496107;31;33795;-65
2021/03/02 02:39:05;;;;;;;11.15;5.72;;;;;;;23.68;36.67;101531.16;4470340;32;34832;-66
2021/03/02 02:41:32;;;;;;;13.65;6.68;;;;;;;23.68;36.63;101531.16;4483117;32;34521;-60
2021/03/02 02:44:18;;;;;;;14.80;5.95;;;;;;;23.68;36.72;101539.34;4472309;32;33224;-61
2021/03/02 02:46:45;;;;;;;12.10;6.43;;;;;;;23.68;36.72;101533.88;4469152;32;33780;-63
2021/03/02 02:49:12;;;;;;;11.40;6.00;;;;;;;23.67;36.73;101537.66;4482899;32;33845;-61
2021/03/02 02:51:39;;;;;;;12.88;6.60;;;;;;;23.67;36.74;101542.25;4470108;32;34390;-63
2021/03/02 02:54:07;;;;;;;10.38;5.68;;;;;;;23.66;36.72;101541.41;4470069;32;33286;-66
2021/03/02 02:56:37;;;;;;;10.98;5.72;;;;;;;23.65;36.78;101534.28;4484080;32;33862;-65
2021/03/02 02:59:24;;;;;;;13.55;5.25;;;;;;;23.65;36.80;101533.44;4470237;32;33804;-65
2021/03/02 03:01:56;;;;;;;13.80;6.20;;;;;;;23.67;36.79;101534.94;4483970;32;34456;-65
2021/03/02 03:04:30;;;;;;;10.27;5.68;;;;;;;23.64;36.79;101542.63;4484092;32;33353;-63
2021/03/02 03:06:58;;;;;;;11.48;5.80;;;;;;;23.63;36.79;101544.47;4484007;32;33906;-59
2021/03/02 03:09:25;;;;;;;14.82;6.00;;;;;;;23.63;36.81;101540.91;4482919;32;33897;-63
2021/03/02 03:12:01;;;;;;;10.70;5.60;;;;;;;23.62;36.81;101540.06;4469862;32;34090;-65
2021/03/02 03:14:49;;;;;;;11.20;5.45;;;;;;;23.62;36.84;101542.78;4496037;31;33506;-62
2021/03/02 03:17:16;;;;;;;8.13;5.60;;;;;;;23.62;36.84;101541.94;4498758;31;34592;-61
2021/03/02 03:19:46;;;;;;;9.65;5.40;;;;;;;23.61;36.83;101538.37;4498665;31;33864;-64
2021/03/02 03:22:14;;;;;;;10.77;5.43;;;;;;;23.60;36.87;101541.28;4500090;31;33933;-65
2021/03/02 03:24:41;;;;;;;10.50;5.82;;;;;;;23.59;36.85;101540.41;4499782;31;33375;-63
2021/03/02 03:27:08;;;;;;;12.90;6.12;;;;;;;23.60;36.84;101541.28;4498577;31;33804;-64
2021/03/02 03:29:36;;;;;;;9.60;5.70;;;;;;;23.59;36.87;101542.31;4485468;31;33915;-65
2021/03/02 03:32:03;;;;;;;14.00;5.97;;;;;;;23.58;36.86;101544.19;4485415;31;34632;-59
2021/03/02 03:34:30;;;;;;;11.25;5.75;;;;;;;23.58;36.92;101538.75;4485396;31;34133;-60
2021/03/02 03:36:57;;;;;;;10.38;5.37;;;;;;;23.58;36.97;101535.16;4485356;31;33911;-63
2021/03/02 03:39:25;;;;;;;12.57;5.32;;;;;;;23.58;37.00;101537.91;4485278;31;33638;-61
2021/03/02 03:41:52;;;;;;;13.05;6.12;;;;;;;23.57;36.97;101547.94;4493085;31;33890;-56
2021/03/02 03:44:19;;;;;;;10.68;6.07;;;;;;;23.57;37.04;101534.31;4473882;31;33128;-54
2021/03/02 03:46:46;;;;;;;12.80;5.87;;;;;;;23.58;36.92;101541.47;4484593;31;33535;-56
2021/03/02 03:49:13;;;;;;;9.65;5.25;;;;;;;23.57;36.93;101541.66;4499214;31;34769;-57
2021/03/02 03:51:40;;;;;;;10.10;5.30;;;;;;;23.57;37.00;101538.94;4482297;32;34746;-56
2021/03/02 03:54:07;;;;;;;9.93;5.93;;;;;;;23.56;36.99;101543.53;4482551;32;33352;-55
2021/03/02 03:56:35;;;;;;;15.27;5.80;;;;;;;23.57;36.99;101534.31;4482410;32;33912;-59
2021/03/02 03:59:03;;;;;;;10.43;5.53;;;;;;;23.55;37.00;101541.84;4469821;32;33851;-54
2021/03/02 04:01:30;;;;;;;15.85;5.60;;;;;;;23.54;37.02;101534.69;4469445;32;33722;-54
2021/03/02 04:03:58;;;;;;;11.18;5.82;;;;;;;23.55;36.99;101547.31;4472556;31;34184;-55
2021/03/02 04:06:25;;;;;;;13.32;4.93;;;;;;;23.54;37.07;101542.88;4484804;31;33937;-55
2021/03/02 04:08:52;;;;;;;12.57;6.30;;;;;;;23.54;37.09;101539.28;4472065;31;34960;-51
2021/03/02 04:11:19;;;;;;;9.68;5.75;;;;;;;23.53;37.11;101530.28;4485166;31;33509;-52
2021/03/02 04:13:46;;;;;;;12.63;5.03;;;;;;;23.53;37.11;101534.87;4482177;32;34091;-56
2021/03/02 04:16:13;;;;;;;9.43;5.07;;;;;;;23.53;37.07;101529.44;4482107;32;33780;-58
2021/03/02 04:18:40;;;;;;;9.15;5.12;;;;;;;23.53;37.13;101529.44;4483139;32;33843;-54
2021/03/02 04:21:07;;;;;;;8.52;5.95;;;;;;;23.51;37.10;101526.91;4483255;32;33701;-53
2021/03/02 04:23:34;;;;;;;11.57;5.25;;;;;;;23.51;37.17;101524.19;4469009;32;33930;-54
2021/03/02 04:26:02;;;;;;;12.13;5.25;;;;;;;23.51;37.17;101529.63;4483235;32;33779;-58
2021/03/02 04:28:29;;;;;;;9.73;5.50;;;;;;;23.50;37.15;101530.66;4483211;32;33865;-50
2021/03/02 04:30:56;;;;;;;8.32;4.70;;;;;;;23.50;37.13;101525.22;4483181;32;34446;-60
2021/03/02 04:33:23;;;;;;;11.38;5.25;;;;;;;23.50;37.07;101529.78;4483089;32;33216;-56
2021/03/02 04:35:56;;;;;;;8.07;5.00;;;;;;;23.49;37.11;101530.84;4483274;32;33507;-50
2021/03/02 04:38:24;;;;;;;10.50;5.60;;;;;;;23.50;37.09;101524.34;4483085;32;33985;-53
2021/03/02 04:40:51;;;;;;;12.00;5.20;;;;;;;23.49;37.17;101530.84;4492946;31;33921;-48
2021/03/02 04:43:18;;;;;;;9.02;4.82;;;;;;;23.48;37.18;101532.72;4499113;31;33396;-59
2021/03/02 04:45:51;;;;;;;9.30;5.30;;;;;;;23.47;37.19;101525.56;4498700;31;34392;-52
2021/03/02 04:48:18;;;;;;;9.38;5.43;;;;;;;23.48;37.18;101521.81;4498714;31;33966;-57
2021/03/02 04:50:45;;;;;;;10.52;5.35;;;;;;;23.49;37.17;101517.22;4498543;31;33970;-54
2021/03/02 04:53:13;;;;;;;10.38;5.43;;;;;;;23.46;37.20;101523.91;4498766;31;34368;-54
2021/03/02 04:55:40;;;;;;;15.63;5.43;;;;;;;23.47;37.12;101528.31;4498654;31;33992;-58
2021/03/02 04:58:07;;;;;;;11.02;5.55;;;;;;;23.46;37.17;101529.34;4498673;31;34738;-60
2021/03/02 05:00:34;;;;;;;10.45;5.10;;;;;;;23.46;37.17;101523.06;4498073;31;33813;-54
2021/03/02 05:03:01;;;;;;;7.93;4.97;;;;;;;23.45;37.17;101524.91;4484625;31;33316;-58
2021/03/02 05:05:29;;;;;;;8.75;5.18;;;;;;;23.45;37.17;101527.63;4498474;31;34906;-52
2021/03/02 05:07:56;;;;;;;10.48;5.70;;;;;;;23.45;37.20;101524.06;4490807;31;33950;-54
2021/03/02 05:10:23;;;;;;;9.55;4.95;;;;;;;23.44;37.19;101531.38;4484356;32;34461;-59
2021/03/02 05:12:54;;;;;;;8.43;5.10;;;;;;;23.42;37.18;101522.56;4484829;32;33447;-62
2021/03/02 05:15:21;;;;;;;9.85;4.87;;;;;;;23.42;37.18;101519.84;4484565;32;33791;-54
2021/03/02 05:17:48;;;;;;;8.70;5.10;;;;;;;23.41;37.16;101519.00;4485076;32;33815;-58
2021/03/02 05:20:16;;;;;;;8.98;5.15;;;;;;;23.41;37.17;101519.00;4491240;31;33840;-58
2021/03/02 05:22:44;;;;;;;7.72;5.07;;;;;;;23.41;37.18;101523.59;4486131;31;34753;-55
2021/03/02 05:25:11;;;;;;;8.07;4.50;;;;;;;23.40;37.18;101519.16;4491050;31;33889;-65
2021/03/02 05:27:38;;;;;;;13.27;5.00;;;;;;;23.40;37.15;101520.00;4496868;31;34734;-65
2021/03/02 05:30:06;;;;;;;9.07;5.30;;;;;;;23.40;37.25;101520.00;4498575;31;34530;-63
2021/03/02 05:32:33;;;;;;;10.63;5.18;;;;;;;23.40;37.26;101522.72;4484831;32;33353;-63
2021/03/02 05:35:00;;;;;;;9.10;4.72;;;;;;;23.40;37.23;101524.59;4485045;32;33890;-65
2021/03/02 05:37:27;;;;;;;8.95;5.10;;;;;;;23.40;37.26;101528.19;4484698;32;34623;-64
2021/03/02 05:40:06;;;;;;;9.25;4.50;;;;;;;23.39;37.19;101523.78;4484581;32;34113;-65
2021/03/02 05:42:34;;;;;;;7.78;5.03;;;;;;;23.39;37.28;101526.50;4488616;31;34359;-65
2021/03/02 05:45:03;;;;;;;10.80;4.60;;;;;;;23.37;37.32;101531.28;4500166;31;34642;-62
2021/03/02 05:47:32;;;;;;;9.50;4.70;;;;;;;23.38;37.27;101532.13;4500486;31;33908;-65
2021/03/02 05:50:02;;;;;;;9.13;4.80;;;;;;;23.37;37.34;101533.16;4500447;31;33934;-64
2021/03/02 05:52:31;;;;;;;9.88;5.15;;;;;;;23.38;37.30;101532.13;4500619;31;34271;-65
2021/03/02 05:54:59;;;;;;;9.57;4.75;;;;;;;23.37;37.26;101528.56;4500420;31;33489;-64
2021/03/02 05:57:27;;;;;;;11.00;4.72;;;;;;;23.36;37.35;101528.72;4499111;31;33901;-64
2021/03/02 05:59:54;;;;;;;9.57;4.72;;;;;;;23.36;37.34;101526.00;4500359;31;33749;-65
2021/03/02 06:02:21;;;;;;;9.25;4.60;;;;;;;23.35;37.28;101525.16;4499224;31;34021;-64
2021/03/02 06:04:49;;;;;;;7.97;4.50;;;;;;;23.36;37.27;101529.59;4500004;31;33490;-60
2021/03/02 06:07:16;;;;;;;10.93;4.50;;;;;;;23.36;37.31;101535.06;4500315;31;34739;-64
2021/03/02 06:09:46;;;;;;;8.02;4.43;;;;;;;23.35;37.33;101535.22;4500585;31;33759;-64
2021/03/02 06:12:14;;;;;;;9.88;4.45;;;;;;;23.34;37.32;101530.81;4500116;31;33425;-63
2021/03/02 06:14:41;;;;;;;10.38;4.72;;;;;;;23.35;37.29;101532.50;4494264;31;33938;-52
2021/03/02 06:17:08;;;;;;;8.18;4.78;;;;;;;23.35;37.32;101546.09;4483200;32;33914;-56
2021/03/02 06:19:35;;;;;;;7.10;4.62;;;;;;;23.35;37.31;101546.09;4483688;32;34503;-55
2021/03/02 06:22:02;;;;;;;8.25;4.30;;;;;;;23.34;37.24;101541.69;4482812;32;33312;-58
2021/03/02 06:24:39;;;;;;;7.53;4.78;;;;;;;23.33;37.32;101540.84;4467789;32;34558;-54
2021/03/02 06:27:13;;;;;;;10.75;4.28;;;;;;;23.33;37.27;101546.31;4484047;32;33916;-53
2021/03/02 06:29:40;;;;;;;8.32;4.45;;;;;;;23.33;37.18;101546.31;4484259;32;34688;-58
2021/03/02 06:32:08;;;;;;;6.55;4.12;;;;;;;23.33;37.25;101545.47;4482716;32;33494;-59
2021/03/02 06:34:35;;;;;;;8.68;4.72;;;;;;;23.31;37.36;101548.34;4484068;32;33792;-56
2021/03/02 06:37:04;;;;;;;8.52;4.57;;;;;;;23.32;37.33;101549.22;4484373;32;34508;-57
2021/03/02 06:39:39;;;;;;;11.23;5.07;;;;;;;23.31;37.33;101548.34;4483856;32;33847;-55
2021/03/02 06:42:09;;;;;;;7.12;4.28;;;;;;;23.32;37.34;101549.22;4484166;32;33136;-59
2021/03/02 06:44:37;;;;;;;9.32;4.80;;;;;;;23.31;37.32;101547.50;4484046;32;33567;-57
2021/03/02 06:47:15;;;;;;;7.10;4.22;;;;;;;23.31;37.26;101544.78;4483990;32;35115;-59
2021/03/02 06:49:44;;;;;;;8.52;4.37;;;;;;;23.30;37.28;101546.66;4482648;32;33724;-63
2021/03/02 06:52:18;;;;;;;9.60;4.62;;;;;;;23.27;37.27;101552.50;4483266;32;33460;-54
2021/03/02 06:54:46;;;;;;;8.82;4.43;;;;;;;23.30;37.30;101554.00;4479847;31;33875;-56
2021/03/02 06:57:22;;;;;;;9.50;4.60;;;;;;;23.28;37.27;101554.19;4482903;32;33862;-60
2021/03/02 06:59:53;;;;;;;9.77;4.47;;;;;;;23.29;37.38;101560.47;4489053;31;33648;-62
2021/03/02 07:02:50;;;;;;;8.38;4.22;;;;;;;23.28;37.46;101559.63;4482538;32;32222;-55
2021/03/02 07:05:17;;;;;;;8.32;4.68;;;;;;;23.32;37.33;101562.84;4480752;31;32473;-59
2021/03/02 07:07:47;;;;;;;7.45;4.35;;;;;;;23.28;37.39;101566.97;4483987;32;34874;-62
2021/03/02 07:10:14;;;;;;;11.30;5.37;;;;;;;23.27;37.37;101568.84;4496528;31;33799;-58
2021/03/02 07:12:42;;;;;;;6.35;4.12;;;;;;;23.27;37.43;101568.84;4499806;31;33425;-58
2021/03/02 07:15:14;;;;;;;9.27;4.00;;;;;;;23.28;37.42;101566.97;4499860;31;33866;-59
2021/03/02 07:17:42;;;;;;;8.65;4.22;;;;;;;23.28;37.38;101575.13;4482588;32;34649;-61
2021/03/02 07:20:12;;;;;;;10.82;4.60;;;;;;;23.27;37.40;101567.97;4483836;32;34017;-52
2021/03/02 07:22:39;;;;;;;14.93;5.55;;;;;;;23.27;37.39;101573.41;4484108;32;34400;-58
2021/03/02 07:25:09;;;;;;;7.32;4.30;;;;;;;23.28;37.47;101569.69;4484294;32;33773;-60
2021/03/02 07:27:40;;;;;;;7.70;4.15;;;;;;;23.26;37.49;101572.56;4483778;32;33699;-58
2021/03/02 07:30:09;;;;;;;10.60;5.12;;;;;;;23.28;37.35;101575.13;4482858;32;33858;-58
2021/03/02 07:32:36;;;;;;;10.20;5.00;;;;;;;23.28;37.34;101577.84;4483413;32;33099;-52
2021/03/02 07:35:06;;;;;;;9.65;4.15;;;;;;;23.27;37.46;101576.13;4484150;32;34628;-56
2021/03/02 07:37:33;;;;;;;10.20;4.47;;;;;;;23.26;37.43;101569.00;4483957;32;33483;-56
2021/03/02 07:40:08;;;;;;;10.10;4.32;;;;;;;23.25;37.42;101581.78;4482362;32;33469;-58
2021/03/02 07:42:36;;;;;;;11.15;4.50;;;;;;;23.27;37.50;101578.84;4487055;31;33316;-56
2021/03/02 07:45:32;;;;;;;12.37;3.97;;;;;;;23.25;37.52;101575.47;4498066;31;33737;-55
2021/03/02 07:48:00;;;;;;;12.23;4.80;;;;;;;23.27;37.41;101582.44;4473308;31;34934;-51
2021/03/02 07:50:29;;;;;;;16.77;4.93;;;;;;;23.25;37.17;101583.66;4483622;32;33486;-49
2021/03/02 07:53:22;;;;;;;15.63;7.75;;;;;;;23.24;37.27;101590.13;4483608;32;33339;-49
2021/03/02 07:56:26;;;;;;;28.90;10.80;;;;;;;23.28;34.32;101586.03;4484638;31;33940;-57
2021/03/02 07:59:11;;;;;;;17.70;7.50;;;;;;;23.23;33.54;101589.28;4444692;32;33485;-56
2021/03/02 08:01:39;;;;;;;15.45;8.48;;;;;;;23.21;35.23;101588.59;4494009;31;33497;-56
2021/03/02 08:04:16;;;;;;;21.48;8.10;;;;;;;23.16;35.03;101586.44;4484638;31;33791;-60
2021/03/02 08:06:50;;;;;;;12.60;7.70;;;;;;;23.19;35.19;101579.78;4493237;31;34548;-57
2021/03/02 08:09:26;;;;;;;22.55;7.40;;;;;;;23.26;34.99;101580.75;4482056;32;34741;-57
2021/03/02 08:11:54;;;;;;;14.93;6.57;;;;;;;23.42;34.88;101579.78;4492500;31;34697;-50
2021/03/02 08:14:24;;;;;;;20.10;6.78;;;;;;;23.56;34.85;101578.97;4481931;32;33355;-69
2021/03/02 08:16:58;;;;;;;9.90;6.30;;;;;;;23.72;34.74;101577.13;4483157;32;33826;-64
2021/03/02 08:19:40;;;;;;;11.07;6.18;;;;;;;23.88;34.60;101576.97;4482007;31;33749;-65
2021/03/02 08:22:16;;;;;;;18.80;7.12;;;;;;;24.02;34.52;101572.56;4482633;31;33749;-63
2021/03/02 08:24:54;;;;;;;17.37;6.05;;;;;;;24.16;34.57;101575.28;4482604;32;33410;-67
2021/03/02 08:27:49;;;;;;;12.70;6.35;;;;;;;24.29;34.52;101576.50;4482722;32;34103;-62
2021/03/02 08:30:26;;;;;;;16.37;5.32;;;;;;;24.44;34.44;101577.38;4482865;32;34842;-58
2021/03/02 08:32:55;;;;;;;16.85;6.68;;;;;;;24.53;34.45;101578.97;4483398;32;33720;-61
2021/03/02 08:35:30;;;;;;;16.37;6.12;;;;;;;24.66;34.33;101579.09;4482816;32;34774;-49
2021/03/02 08:38:15;;;;;;;14.07;5.80;;;;;;;24.79;34.25;101564.75;4482828;32;34675;-65
2021/03/02 08:40:45;;;;;;;14.25;5.95;;;;;;;24.97;34.09;101569.78;4481126;32;33526;-59
2021/03/02 08:43:19;;;;;;;11.45;5.62;;;;;;;25.10;34.02;101571.84;4482916;32;33757;-54
2021/03/02 08:45:54;;;;;;;12.88;5.70;;;;;;;25.22;33.90;101562.06;4484746;32;33286;-57
2021/03/02 08:48:39;;;;;;;15.23;5.50;;;;;;;25.35;33.76;101564.91;4484975;32;34806;-56
2021/03/02 08:51:10;;;;;;;16.02;6.35;;;;;;;25.46;33.71;101560.81;4484623;32;34636;-65
2021/03/02 08:53:43;;;;;;;19.37;6.37;;;;;;;25.56;33.64;101566.78;4484333;32;34704;-62
2021/03/02 08:56:20;;;;;;;11.77;4.70;;;;;;;25.66;33.57;101560.97;4482829;32;33453;-62
2021/03/02 08:58:50;;;;;;;10.90;5.03;;;;;;;25.76;33.47;101561.50;4484735;32;33499;-67
2021/03/02 09:01:26;;;;;;;15.60;5.78;;;;;;;25.86;33.40;101555.66;4484419;32;33778;-55
2021/03/02 09:04:11;;;;;;;16.40;5.07;;;;;;;25.98;33.31;101553.22;4485022;32;34037;-62
2021/03/02 09:06:43;;;;;;;14.48;5.28;;;;;;;26.08;33.18;101557.28;4483267;32;34245;-55
2021/03/02 09:09:20;;;;;;;10.30;5.40;;;;;;;26.17;33.10;101555.22;4484841;32;34573;-64
2021/03/02 09:11:51;;;;;;;13.68;5.40;;;;;;;26.25;33.03;101543.25;4484749;32;33871;-74
2021/03/02 09:14:25;;;;;;;13.77;4.85;;;;;;;26.35;32.99;101549.22;4484529;32;34015;-57
2021/03/02 09:16:55;;;;;;;11.30;5.00;;;;;;;26.45;32.90;101557.91;4484531;32;33119;-71
2021/03/02 09:19:26;;;;;;;11.38;5.32;;;;;;;26.52;32.82;101550.53;4484791;32;33570;-73
2021/03/02 09:22:03;;;;;;;9.27;4.72;;;;;;;26.59;32.77;101539.63;4484549;32;33762;-69
2021/03/02 09:24:53;;;;;;;12.37;4.95;;;;;;;26.65;32.70;101539.63;4484523;32;33859;-50
2021/03/02 09:27:20;;;;;;;;;;;;;;;26.69;32.66;101535.44;4484582;32;33986;-55
2021/03/02 09:29:51;;;;;;;18.08;4.70;;;;;;;26.86;32.44;101537.78;4484473;31;33649;-53
2021/03/02 09:32:29;;;;;;;11.00;5.10;;;;;;;26.82;32.47;101529.16;4481120;31;34759;-59
2021/03/02 09:35:15;;;;;;;10.52;4.85;;;;;;;26.84;32.41;101526.19;4492284;31;34802;-63
2021/03/02 09:37:43;;;;;;;19.98;4.87;;;;;;;26.93;32.27;101530.44;4483564;32;33239;-65
2021/03/02 09:40:12;;;;;;;15.48;4.75;;;;;;;26.96;32.24;101536.34;4484271;32;33898;-67
2021/03/02 09:42:40;;;;;;;13.77;5.53;;;;;;;27.01;32.17;101532.97;4484308;32;34645;-63
2021/03/02 09:45:16;;;;;;;10.82;4.90;;;;;;;27.08;32.13;101536.59;4486348;31;33852;-73
2021/03/02 09:47:44;;;;;;;13.95;5.32;;;;;;;27.15;32.07;101531.97;4500325;31;33972;-66
2021/03/02 09:50:17;;;;;;;10.90;4.78;;;;;;;27.19;32.04;101541.47;4489978;31;33908;-68
2021/03/02 09:52:51;;;;;;;14.75;4.95;;;;;;;27.25;32.01;101536.19;4482872;32;33931;-59
2021/03/02 09:55:19;;;;;;;12.27;4.97;;;;;;;27.28;32.06;101539.38;4482162;32;33821;-58
2021/03/02 09:57:57;;;;;;;14.57;5.45;;;;;;;27.32;32.03;101542.50;4499794;31;33468;-55
2021/03/02 10:00:30;;;;;;;17.35;5.30;;;;;;;27.37;32.05;101535.34;4493993;31;33865;-60
2021/03/02 10:03:09;;;;;;;13.75;5.32;;;;;;;27.41;31.88;101541.22;4471163;32;35231;-66
2021/03/02 10:05:36;;;;;;;14.15;5.50;;;;;;;27.48;31.71;101542.09;4476853;32;33746;-53
2021/03/02 10:08:25;;;;;;;15.43;4.85;;;;;;;27.52;31.73;101537.88;4484227;32;33361;-69
2021/03/02 10:11:15;;;;;;;17.17;5.07;;;;;;;27.61;31.70;101535.75;4484421;32;33838;-54
2021/03/02 10:13:45;;;;;;;13.60;4.97;;;;;;;27.63;31.76;101539.13;4484432;32;33842;-67
2021/03/02 10:16:31;;;;;;;18.40;4.65;;;;;;;27.69;31.74;101535.50;4484503;32;34810;-57
2021/03/02 10:19:03;;;;;;;16.90;4.75;;;;;;;27.73;31.76;101535.97;4484275;32;34222;-56
2021/03/02 10:21:36;;;;;;;9.45;4.40;;;;;;;27.76;31.82;101538.28;4483626;32;33848;-57
2021/03/02 10:24:04;;;;;;;10.55;4.37;;;;;;;27.80;31.78;101534.06;4482750;32;36042;-63
2021/03/02 10:26:37;;;;;;;10.10;4.07;;;;;;;27.83;31.79;101533.62;4484389;32;33773;-57
2021/03/02 10:29:06;;;;;;;10.35;4.18;;;;;;;27.88;31.77;101537.41;4484250;32;33357;-52
2021/03/02 10:31:34;;;;;;;12.70;5.53;;;;;;;27.89;31.71;101535.53;4484574;32;33472;-52
2021/03/02 10:34:02;;;;;;;11.70;4.90;;;;;;;27.92;31.39;101532.34;4484427;32;34702;-53
2021/03/02 10:36:32;;;;;;;11.75;5.43;;;;;;;27.91;31.00;101533.41;4484239;32;33697;-56
2021/03/02 10:39:01;;;;;;;11.23;5.47;;;;;;;27.93;30.87;101525.78;4494199;31;33348;-54
2021/03/02 10:41:28;;;;;;;14.85;5.68;;;;;;;27.91;30.42;101523.25;4487576;31;33773;-56
2021/03/02 10:43:56;;;;;;;21.50;5.82;;;;;;;27.88;30.46;101518.19;4483087;32;33566;-57
2021/03/02 10:46:24;;;;;;;19.95;6.35;;;;;;;27.85;30.49;101518.66;4482533;32;34078;-68
2021/03/02 10:48:52;;;;;;;18.58;6.87;;;;;;;27.80;30.22;101515.72;4484074;32;34382;-73
2021/03/02 10:51:19;;;;;;;15.40;6.72;;;;;;;27.73;29.72;101508.53;4484193;32;33761;-67
2021/03/02 10:53:46;;;;;;;16.20;6.93;;;;;;;27.65;29.84;101499.47;4483364;32;33879;-72
2021/03/02 10:56:14;;;;;;;15.10;7.57;;;;;;;27.60;28.87;101495.66;4483965;32;33759;-70
2021/03/02 10:58:42;;;;;;;25.50;7.15;;;;;;;27.52;28.64;101502.22;4484071;32;33274;-68
2021/03/02 11:01:09;;;;;;;18.95;7.82;;;;;;;27.45;29.30;101498.63;4484014;32;33867;-63
2021/03/02 11:03:36;;;;;;;20.85;7.25;;;;;;;27.37;28.97;101487.87;4484381;32;33989;-70
2021/03/02 11:06:03;;;;;;;20.17;7.07;;;;;;;27.29;29.50;101488.97;4483794;32;34527;-70
2021/03/02 11:08:31;;;;;;;20.88;6.75;;;;;;;27.23;29.53;101486.22;4483900;32;33367;-65
2021/03/02 11:10:58;;;;;;;19.40;6.90;;;;;;;27.14;30.14;101493.78;4484011;32;34620;-71
2021/03/02 11:13:25;;;;;;;19.85;7.45;;;;;;;27.05;29.77;101484.09;4483975;32;34735;-66
2021/03/02 11:15:52;;;;;;;14.50;7.32;;;;;;;26.99;28.01;101482.19;4484251;32;33274;-73
2021/03/02 11:18:19;;;;;;;18.83;7.37;;;;;;;26.91;28.28;101480.50;4483911;32;33476;-69
2021/03/02 11:20:46;;;;;;;13.45;6.40;;;;;;;26.83;28.00;101480.69;4483850;32;33763;-65
2021/03/02 11:23:15;;;;;;;19.12;6.43;;;;;;;26.76;28.43;101466.97;4481979;31;33977;-65
2021/03/02 11:25:42;;;;;;;22.62;7.18;;;;;;;26.71;28.04;101474.97;4488871;31;33914;-67
2021/03/02 11:28:10;;;;;;;18.00;8.10;;;;;;;26.63;28.77;101470.56;4482343;32;33420;-67
2021/03/02 11:30:38;;;;;;;14.38;6.40;;;;;;;26.56;27.57;101464.22;4484132;32;33786;-70
2021/03/02 11:33:06;;;;;;;18.98;7.40;;;;;;;26.51;28.28;101461.28;4483890;32;33777;-70
2021/03/02 11:35:33;;;;;;;20.02;6.30;;;;;;;26.47;28.49;101472.84;4483322;32;35048;-63